Celoron, New York
Current Conditions -  °F | °C
As of 11:35 PM on Monday 20 Oct 2014 (Local Time) from KJHW Reporting Station
Overcast Overcast  
Wind Chill: 44°   Ceiling: 500
Heat Index: 46°   Visibility: 8mi
Dew Point: 45°   Wind: 6mph
Humidity: 93%   Direction: 190°S
Pressure: 29.83"   Gusts: NA
Location:  42.11°N, 79.28°W
Report Text: KJHW 210335Z AUTO 19005KT 8SM OVC005 08/07 A2983 RMK AO1
Loading
Personal Weather Stations






























Interactive Weather Map
Tropical Storm Tracking
New forecast layout! Learn more

10-Day Weather Forecast

Advertisements
Track Severe Weather on mobile